createdAt,value
2018-07-08T00:01:04.364Z,5.70
2018-07-08T00:03:36.567Z,5.03
2018-07-08T00:06:08.757Z,4.87
2018-07-08T00:08:41.075Z,5.10
2018-07-08T00:11:13.354Z,5.27
2018-07-08T00:14:48.912Z,6.10
2018-07-08T00:17:21.470Z,5.43
2018-07-08T00:19:53.640Z,5.07
2018-07-08T00:22:25.751Z,5.33
2018-07-08T00:24:58.056Z,6.10
2018-07-08T00:27:30.284Z,5.57
2018-07-08T00:30:02.618Z,5.27
2018-07-08T00:32:34.720Z,6.00
2018-07-08T00:35:06.882Z,5.57
2018-07-08T00:37:39.095Z,6.63
2018-07-08T00:40:11.240Z,4.93
2018-07-08T00:42:43.414Z,5.27
2018-07-08T00:45:15.597Z,5.93
2018-07-08T00:47:47.786Z,4.60
2018-07-08T00:50:19.955Z,5.80
2018-07-08T00:52:52.085Z,6.47
2018-07-08T00:55:24.624Z,6.00
2018-07-08T00:57:56.781Z,5.90
2018-07-08T01:00:31.082Z,5.33
2018-07-08T01:03:04.278Z,5.90
2018-07-08T01:05:36.421Z,5.10
2018-07-08T01:08:08.581Z,5.53
2018-07-08T01:10:40.682Z,6.17
2018-07-08T01:13:12.820Z,7.17
2018-07-08T01:15:45.008Z,5.80
2018-07-08T01:18:17.165Z,5.60
2018-07-08T01:20:49.240Z,5.97
2018-07-08T01:23:21.331Z,5.43
2018-07-08T01:26:08.186Z,5.30
2018-07-08T01:28:41.287Z,5.47
2018-07-08T01:31:13.509Z,5.40
2018-07-08T01:33:45.637Z,5.03
2018-07-08T01:36:17.742Z,6.00
2018-07-08T01:38:49.849Z,5.10
2018-07-08T01:41:21.948Z,5.80
2018-07-08T01:43:54.214Z,5.70
2018-07-08T01:46:26.421Z,6.23
2018-07-08T01:48:58.476Z,6.73
2018-07-08T01:51:30.617Z,5.17
2018-07-08T01:54:02.783Z,6.77
2018-07-08T01:56:34.982Z,5.20
2018-07-08T01:59:07.402Z,5.30
2018-07-08T02:01:39.570Z,5.90
2018-07-08T02:04:11.719Z,5.60
2018-07-08T02:06:43.862Z,5.50
2018-07-08T02:09:15.968Z,5.10
2018-07-08T02:11:48.075Z,5.27
2018-07-08T02:14:21.187Z,5.57
2018-07-08T02:16:53.334Z,4.70
2018-07-08T02:19:25.460Z,5.30
2018-07-08T02:21:57.657Z,5.50
2018-07-08T02:24:29.828Z,5.60
2018-07-08T02:27:02.593Z,6.40
2018-07-08T02:29:36.245Z,4.80
2018-07-08T02:32:08.433Z,4.73
2018-07-08T02:34:40.512Z,5.10
2018-07-08T02:37:13.085Z,5.20
2018-07-08T02:39:45.352Z,5.80
2018-07-08T02:42:17.476Z,5.50
2018-07-08T02:44:49.710Z,7.43
2018-07-08T02:47:22.658Z,5.93
2018-07-08T02:49:54.865Z,5.90
2018-07-08T02:52:27.154Z,5.80
2018-07-08T02:54:59.274Z,7.03
2018-07-08T02:57:31.473Z,6.30
2018-07-08T03:00:04.363Z,6.10
2018-07-08T03:02:36.544Z,6.30
2018-07-08T03:05:08.691Z,5.00
2018-07-08T03:07:40.879Z,5.97
2018-07-08T03:10:12.989Z,5.65
2018-07-08T03:12:45.220Z,5.70
2018-07-08T03:15:17.370Z,6.27
2018-07-08T03:17:50.146Z,5.60
2018-07-08T03:20:22.220Z,5.40
2018-07-08T03:22:54.462Z,4.83
2018-07-08T03:25:26.710Z,5.60
2018-07-08T03:27:58.879Z,5.43
2018-07-08T03:30:30.989Z,6.80
2018-07-08T03:33:03.131Z,5.53
2018-07-08T03:35:35.208Z,6.08
2018-07-08T03:38:07.361Z,6.10
2018-07-08T03:40:39.473Z,5.47
2018-07-08T03:43:11.594Z,4.40
2018-07-08T03:45:43.663Z,5.67
2018-07-08T03:48:15.849Z,4.40
2018-07-08T03:50:47.964Z,4.77
2018-07-08T03:53:20.081Z,4.87
2018-07-08T03:55:52.139Z,4.83
2018-07-08T03:58:24.205Z,4.33
2018-07-08T04:00:56.481Z,5.43
2018-07-08T04:03:28.757Z,4.73
2018-07-08T04:06:00.885Z,4.77
2018-07-08T04:08:32.995Z,4.80
2018-07-08T04:11:05.498Z,4.83
2018-07-08T04:13:37.685Z,4.00
2018-07-08T04:16:10.868Z,4.30
2018-07-08T04:18:42.938Z,4.53
2018-07-08T04:21:15.110Z,3.93
2018-07-08T04:23:47.235Z,4.33
2018-07-08T04:26:19.312Z,4.73
2018-07-08T04:28:51.532Z,6.03
2018-07-08T04:31:23.633Z,3.90
2018-07-08T04:33:55.760Z,4.23
2018-07-08T04:36:27.984Z,4.73
2018-07-08T04:39:00.137Z,4.70
2018-07-08T04:41:32.231Z,3.70
2018-07-08T04:44:04.423Z,5.57
2018-07-08T04:46:36.535Z,3.70
2018-07-08T04:49:08.670Z,4.37
2018-07-08T04:51:40.772Z,4.43
2018-07-08T04:54:12.929Z,3.47
2018-07-08T04:56:45.109Z,4.20
2018-07-08T04:59:17.265Z,6.27
2018-07-08T05:01:49.479Z,5.00
2018-07-08T05:04:21.732Z,4.10
2018-07-08T05:06:53.859Z,4.30
2018-07-08T05:09:25.981Z,3.80
2018-07-08T05:11:58.112Z,3.70
2018-07-08T05:14:30.216Z,5.20
2018-07-08T05:17:02.328Z,5.80
2018-07-08T05:19:34.592Z,4.23
2018-07-08T05:22:06.739Z,6.50
2018-07-08T05:24:38.884Z,4.30
2018-07-08T05:27:11.018Z,4.07
2018-07-08T05:29:43.148Z,4.27
2018-07-08T05:32:15.281Z,4.70
2018-07-08T05:34:47.371Z,4.20
2018-07-08T05:37:19.433Z,5.17
2018-07-08T05:39:51.582Z,4.33
2018-07-08T05:42:23.713Z,4.37
2018-07-08T05:44:55.904Z,8.20
2018-07-08T05:47:28.061Z,4.40
2018-07-08T05:50:00.174Z,4.70
2018-07-08T05:52:32.279Z,4.80
2018-07-08T05:55:04.445Z,5.70
2018-07-08T05:57:36.575Z,6.13
2018-07-08T06:00:08.932Z,4.40
2018-07-08T06:02:41.035Z,4.73
2018-07-08T06:05:13.176Z,5.17
2018-07-08T06:07:45.339Z,5.07
2018-07-08T06:10:17.423Z,5.30
2018-07-08T06:12:49.494Z,5.97
2018-07-08T06:15:21.604Z,4.63
2018-07-08T06:17:53.700Z,4.87
2018-07-08T06:20:25.843Z,4.63
2018-07-08T06:22:57.956Z,5.20
2018-07-08T06:25:30.052Z,5.20
2018-07-08T06:28:02.144Z,4.30
2018-07-08T06:30:34.279Z,4.20
2018-07-08T06:33:06.388Z,5.10
2018-07-08T06:35:38.490Z,5.77
2018-07-08T06:38:10.613Z,4.90
2018-07-08T06:40:42.779Z,4.37
2018-07-08T06:43:14.963Z,5.70
2018-07-08T06:45:47.174Z,4.80
2018-07-08T06:48:19.291Z,4.93
2018-07-08T06:50:51.346Z,4.87
2018-07-08T06:53:23.425Z,5.60
2018-07-08T06:55:55.558Z,4.30
2018-07-08T06:58:27.682Z,4.40
2018-07-08T07:00:59.865Z,5.13
2018-07-08T07:03:31.951Z,4.80
2018-07-08T07:06:04.190Z,3.70
2018-07-08T07:08:36.296Z,4.57
2018-07-08T07:11:10.447Z,4.20
2018-07-08T07:13:42.578Z,6.43
2018-07-08T07:16:14.761Z,3.93
2018-07-08T07:18:46.941Z,4.23
2018-07-08T07:21:19.100Z,7.33
2018-07-08T07:23:51.243Z,5.03
2018-07-08T07:26:23.385Z,3.67
2018-07-08T07:28:55.514Z,5.07
2018-07-08T07:31:27.675Z,6.00
2018-07-08T07:33:59.884Z,4.13
2018-07-08T07:36:32.054Z,3.57
2018-07-08T07:39:05.146Z,4.03
2018-07-08T07:41:37.228Z,4.00
2018-07-08T07:44:09.331Z,4.87
2018-07-08T07:46:41.441Z,3.10
2018-07-08T07:49:13.548Z,5.03
2018-07-08T07:51:45.699Z,3.93
2018-07-08T07:54:17.882Z,3.60
2018-07-08T07:56:49.967Z,4.30
2018-07-08T07:59:22.168Z,2.70
2018-07-08T08:01:54.244Z,4.80
2018-07-08T08:04:26.358Z,3.70
2018-07-08T08:06:58.469Z,3.17
2018-07-08T08:09:30.556Z,5.57
2018-07-08T08:12:02.750Z,3.90
2018-07-08T08:14:34.923Z,2.93
2018-07-08T08:17:07.091Z,3.70
2018-07-08T08:19:39.309Z,3.87
2018-07-08T08:22:11.531Z,3.70
2018-07-08T08:24:43.642Z,3.07
2018-07-08T08:27:15.833Z,3.30
2018-07-08T08:29:47.915Z,3.40
2018-07-08T08:32:20.041Z,3.83
2018-07-08T08:34:54.257Z,3.40
2018-07-08T08:37:27.937Z,4.70
2018-07-08T08:40:00.135Z,3.20
2018-07-08T08:42:32.283Z,2.70
2018-07-08T08:45:05.593Z,3.43
2018-07-08T08:47:37.853Z,2.57
2018-07-08T08:50:11.758Z,2.30
2018-07-08T08:52:48.612Z,2.80
2018-07-08T08:55:20.726Z,2.73
2018-07-08T08:57:52.873Z,4.03
2018-07-08T09:00:24.978Z,7.00
2018-07-08T09:02:57.177Z,2.50
2018-07-08T09:05:29.372Z,4.37
2018-07-08T09:08:01.463Z,3.30
2018-07-08T09:10:33.618Z,4.20
2018-07-08T09:13:05.772Z,4.00
2018-07-08T09:15:37.873Z,4.30
2018-07-08T09:18:10.042Z,2.20
2018-07-08T09:20:42.128Z,3.67
2018-07-08T09:23:20.689Z,3.87
2018-07-08T09:25:54.770Z,2.67
2018-07-08T09:28:26.920Z,4.53
2018-07-08T09:30:59.079Z,3.57
2018-07-08T09:33:31.252Z,2.53
2018-07-08T09:36:03.455Z,2.50
2018-07-08T09:38:35.688Z,3.60
2018-07-08T09:41:07.959Z,2.60
2018-07-08T09:43:40.056Z,3.07
2018-07-08T09:46:12.120Z,3.37
2018-07-08T09:48:44.309Z,3.30
2018-07-08T09:51:17.585Z,2.53
2018-07-08T09:53:49.775Z,4.80
2018-07-08T09:56:21.893Z,4.33
2018-07-08T09:58:54.065Z,3.50
2018-07-08T10:01:26.124Z,3.70
2018-07-08T10:03:58.301Z,2.57
2018-07-08T10:06:30.521Z,3.10
2018-07-08T10:09:03.372Z,2.87
2018-07-08T10:11:35.880Z,3.30
2018-07-08T10:14:10.707Z,3.17
2018-07-08T10:16:42.872Z,3.00
2018-07-08T10:19:16.537Z,2.90
2018-07-08T10:21:49.417Z,3.70
2018-07-08T10:24:21.619Z,2.80
2018-07-08T10:27:04.742Z,4.53
2018-07-08T10:29:36.922Z,5.50
2018-07-08T10:32:09.083Z,3.10
2018-07-08T10:34:41.208Z,1.50
2018-07-08T10:37:13.309Z,2.47
2018-07-08T10:39:45.475Z,2.67
2018-07-08T10:42:17.647Z,3.10
2018-07-08T10:44:49.817Z,2.07
2018-07-08T10:47:21.981Z,1.77
2018-07-08T10:49:54.130Z,1.57
2018-07-08T10:52:26.351Z,3.43
2018-07-08T10:54:58.503Z,2.43
2018-07-08T10:57:30.724Z,1.33
2018-07-08T11:00:03.023Z,1.60
2018-07-08T11:02:35.235Z,3.30
2018-07-08T11:05:07.354Z,3.17
2018-07-08T11:07:39.560Z,1.57
2018-07-08T11:10:11.762Z,1.93
2018-07-08T11:12:43.872Z,3.40
2018-07-08T11:15:16.093Z,2.10
2018-07-08T11:17:48.841Z,1.77
2018-07-08T11:20:21.420Z,1.97
2018-07-08T11:22:53.577Z,2.07
2018-07-08T11:25:25.713Z,1.37
2018-07-08T11:27:57.864Z,1.83
2018-07-08T11:30:29.971Z,2.93
2018-07-08T11:33:02.225Z,1.63
2018-07-08T11:35:34.389Z,1.17
2018-07-08T11:38:07.189Z,3.40
2018-07-08T11:40:39.344Z,1.87
2018-07-08T11:43:11.432Z,1.57
2018-07-08T11:45:43.629Z,2.60
2018-07-08T11:48:15.764Z,1.50
2018-07-08T11:50:47.954Z,1.90
2018-07-08T11:53:20.127Z,2.17
2018-07-08T11:55:52.410Z,1.83
2018-07-08T11:58:24.624Z,1.40
2018-07-08T12:00:56.796Z,1.33
2018-07-08T12:03:29.052Z,2.23
2018-07-08T12:06:01.286Z,1.83
2018-07-08T12:08:33.568Z,2.03
2018-07-08T12:11:05.764Z,1.37
2018-07-08T12:13:37.988Z,1.70
2018-07-08T12:16:10.252Z,2.07
2018-07-08T12:18:42.362Z,1.90
2018-07-08T12:21:15.679Z,1.70
2018-07-08T12:23:48.253Z,1.63
2018-07-08T12:26:20.525Z,1.50
2018-07-08T12:28:52.724Z,1.97
2018-07-08T12:31:24.964Z,2.00
2018-07-08T12:33:57.076Z,3.43
2018-07-08T12:36:29.247Z,2.00
2018-07-08T12:39:01.332Z,1.70
2018-07-08T12:41:33.570Z,3.10
2018-07-08T12:44:05.791Z,1.80
2018-07-08T12:46:38.665Z,6.77
2018-07-08T12:49:10.791Z,2.87
2018-07-08T12:51:43.068Z,1.70
2018-07-08T12:54:15.370Z,2.43
2018-07-08T12:56:47.609Z,1.40
2018-07-08T12:59:19.809Z,1.97
2018-07-08T13:01:51.967Z,2.47
2018-07-08T13:04:24.160Z,1.83
2018-07-08T13:06:56.313Z,2.90
2018-07-08T13:09:28.478Z,1.67
2018-07-08T13:12:00.659Z,2.23
2018-07-08T13:14:32.776Z,2.03
2018-07-08T13:17:04.988Z,1.50
2018-07-08T13:19:37.273Z,5.23
2018-07-08T13:22:09.491Z,1.60
2018-07-08T13:24:41.613Z,2.73
2018-07-08T13:27:13.799Z,1.63
2018-07-08T13:29:45.950Z,2.07
2018-07-08T13:32:18.213Z,1.60
2018-07-08T13:34:50.272Z,3.37
2018-07-08T13:37:22.401Z,3.93
2018-07-08T13:39:54.477Z,1.73
2018-07-08T13:42:26.720Z,1.50
2018-07-08T13:44:58.956Z,1.63
2018-07-08T13:47:31.171Z,3.20
2018-07-08T13:50:03.588Z,1.70
2018-07-08T13:52:35.734Z,2.77
2018-07-08T13:55:07.820Z,1.70
2018-07-08T13:57:39.925Z,1.80
2018-07-08T14:00:12.133Z,3.03
2018-07-08T14:02:44.279Z,5.47
2018-07-08T14:05:16.509Z,2.40
2018-07-08T14:07:48.846Z,2.07
2018-07-08T14:10:21.157Z,1.90
2018-07-08T14:12:53.715Z,1.93
2018-07-08T14:15:25.930Z,2.00
2018-07-08T14:17:58.127Z,2.20
2018-07-08T14:20:30.320Z,1.67
2018-07-08T14:23:02.469Z,3.30
2018-07-08T14:25:34.612Z,1.87
2018-07-08T14:28:06.908Z,2.57
2018-07-08T14:30:39.127Z,2.20
2018-07-08T14:33:11.329Z,2.20
2018-07-08T14:35:43.516Z,1.90
2018-07-08T14:38:15.780Z,2.10
2018-07-08T14:40:47.992Z,2.50
2018-07-08T14:43:20.130Z,2.53
2018-07-08T14:45:52.252Z,2.33
2018-07-08T14:48:24.444Z,1.97
2018-07-08T14:50:56.563Z,2.60
2018-07-08T14:53:28.787Z,3.20
2018-07-08T14:56:01.037Z,2.57
2018-07-08T14:58:33.713Z,2.60
2018-07-08T15:01:05.930Z,4.30
2018-07-08T15:03:38.060Z,2.77
2018-07-08T15:06:10.373Z,2.80
2018-07-08T15:08:42.554Z,3.20
2018-07-08T15:11:14.786Z,2.93
2018-07-08T15:13:47.753Z,2.87
2018-07-08T15:16:19.953Z,2.70
2018-07-08T15:18:55.841Z,4.63
2018-07-08T15:21:28.584Z,2.60
2018-07-08T15:24:01.338Z,2.60
2018-07-08T15:26:33.525Z,2.70
2018-07-08T15:29:05.768Z,4.00
2018-07-08T15:31:37.968Z,2.53
2018-07-08T15:34:10.899Z,2.87
2018-07-08T15:36:43.218Z,3.07
2018-07-08T15:39:15.697Z,2.73
2018-07-08T15:41:47.914Z,2.87
2018-07-08T15:44:20.116Z,3.40
2018-07-08T15:46:52.271Z,3.17
2018-07-08T15:49:24.640Z,2.80
2018-07-08T15:51:56.759Z,2.73
2018-07-08T15:54:28.973Z,3.23
2018-07-08T15:57:01.169Z,3.90
2018-07-08T15:59:33.429Z,3.33
2018-07-08T16:02:05.756Z,2.83
2018-07-08T16:04:37.897Z,3.53
2018-07-08T16:07:10.144Z,2.70
2018-07-08T16:09:42.328Z,4.27
2018-07-08T16:12:14.445Z,3.00
2018-07-08T16:14:46.636Z,3.10
2018-07-08T16:17:18.785Z,6.27
2018-07-08T16:19:51.038Z,4.20
2018-07-08T16:22:23.176Z,3.27
2018-07-08T16:24:55.336Z,4.30
2018-07-08T16:27:27.486Z,3.33
2018-07-08T16:29:59.801Z,3.83
2018-07-08T16:32:32.116Z,4.80
2018-07-08T16:35:04.310Z,2.63
2018-07-08T16:37:36.495Z,2.70
2018-07-08T16:40:11.807Z,3.20
2018-07-08T16:42:44.463Z,2.67
2018-07-08T16:45:16.619Z,2.80
2018-07-08T16:47:48.866Z,3.10
2018-07-08T16:50:21.062Z,3.10
2018-07-08T16:52:53.251Z,7.10
2018-07-08T16:55:25.407Z,3.60
2018-07-08T16:57:57.572Z,2.80
2018-07-08T17:00:29.882Z,3.03
2018-07-08T17:03:02.089Z,3.07
2018-07-08T17:05:34.304Z,2.93
2018-07-08T17:08:06.485Z,3.07
2018-07-08T17:10:38.604Z,3.27
2018-07-08T17:13:10.770Z,3.17
2018-07-08T17:15:42.921Z,3.00
2018-07-08T17:18:15.016Z,2.80
2018-07-08T17:20:47.354Z,3.03
2018-07-08T17:23:19.736Z,3.77
2018-07-08T17:25:51.868Z,3.50
2018-07-08T17:28:24.055Z,3.43
2018-07-08T17:30:56.236Z,4.10
2018-07-08T17:33:28.482Z,3.40
2018-07-08T17:36:00.669Z,3.17
2018-07-08T17:38:32.776Z,3.23
2018-07-08T17:41:05.251Z,3.57
2018-07-08T17:43:37.587Z,3.90
2018-07-08T17:46:09.731Z,4.07
2018-07-08T17:48:41.783Z,3.30
2018-07-08T17:51:13.961Z,3.53
2018-07-08T17:53:46.117Z,3.53
2018-07-08T17:56:18.444Z,3.83
2018-07-08T17:58:50.796Z,3.40
2018-07-08T18:01:23.122Z,5.53
2018-07-08T18:03:55.360Z,3.80
2018-07-08T18:06:27.677Z,4.00
2018-07-08T18:09:00.119Z,4.63
2018-07-08T18:11:32.376Z,3.47
2018-07-08T18:14:04.958Z,3.90
2018-07-08T18:16:37.128Z,3.37
2018-07-08T18:19:09.220Z,3.37
2018-07-08T18:21:41.552Z,4.00
2018-07-08T18:24:13.766Z,4.43
2018-07-08T18:26:46.057Z,5.70
2018-07-08T18:29:18.247Z,4.33
2018-07-08T18:31:50.557Z,3.60
2018-07-08T18:34:22.770Z,9.17
2018-07-08T18:36:54.934Z,3.90
2018-07-08T18:39:27.173Z,3.90
2018-07-08T18:41:59.428Z,3.30
2018-07-08T18:44:31.577Z,4.37
2018-07-08T18:47:03.727Z,4.27
2018-07-08T18:49:36.997Z,4.20
2018-07-08T18:52:09.292Z,3.50
2018-07-08T18:54:41.777Z,3.63
2018-07-08T18:57:13.982Z,5.57
2018-07-08T18:59:46.199Z,3.40
2018-07-08T19:02:18.396Z,3.43
2018-07-08T19:04:50.688Z,4.90
2018-07-08T19:07:23.887Z,3.60
2018-07-08T19:09:56.083Z,4.90
2018-07-08T19:12:28.324Z,4.77
2018-07-08T19:15:00.351Z,7.13
2018-07-08T19:17:32.575Z,4.50
2018-07-08T19:20:05.951Z,4.83
2018-07-08T19:22:39.288Z,4.77
2018-07-08T19:25:11.421Z,4.60
2018-07-08T19:27:43.551Z,5.60
2018-07-08T19:30:15.727Z,4.77
2018-07-08T19:32:47.951Z,4.40
2018-07-08T19:35:20.082Z,4.10
2018-07-08T19:37:52.243Z,4.00
2018-07-08T19:40:24.467Z,3.70
2018-07-08T19:42:56.653Z,5.73
2018-07-08T19:45:28.863Z,5.93
2018-07-08T19:48:01.162Z,4.50
2018-07-08T19:50:33.420Z,4.37
2018-07-08T19:53:06.443Z,5.80
2018-07-08T19:55:38.592Z,3.97
2018-07-08T19:58:11.139Z,3.70
2018-07-08T20:00:50.040Z,3.60
2018-07-08T20:03:22.180Z,5.03
2018-07-08T20:05:54.453Z,5.40
2018-07-08T20:08:26.739Z,3.83
2018-07-08T20:10:59.131Z,3.33
2018-07-08T20:13:31.348Z,4.20
2018-07-08T20:16:03.606Z,3.20
2018-07-08T20:18:35.987Z,4.30
2018-07-08T20:21:08.411Z,4.70
2018-07-08T20:23:40.458Z,3.90
2018-07-08T20:26:12.626Z,4.47
2018-07-08T20:28:45.116Z,3.97
2018-07-08T20:31:17.767Z,5.63
2018-07-08T20:33:50.069Z,4.20
2018-07-08T20:36:22.287Z,5.50
2018-07-08T20:38:54.439Z,4.40
2018-07-08T20:41:26.638Z,4.00
2018-07-08T20:43:58.807Z,3.70
2018-07-08T20:46:31.383Z,5.10
2018-07-08T20:49:03.923Z,3.77
2018-07-08T20:51:36.149Z,3.70
2018-07-08T20:54:08.827Z,3.57
2018-07-08T20:56:41.797Z,4.23
2018-07-08T20:59:14.205Z,4.00
2018-07-08T21:01:46.372Z,4.20
2018-07-08T21:04:18.607Z,4.80
2018-07-08T21:06:51.119Z,4.00
2018-07-08T21:09:23.521Z,4.37
2018-07-08T21:11:56.118Z,3.80
2018-07-08T21:14:29.912Z,3.60
2018-07-08T21:17:02.411Z,3.77
2018-07-08T21:19:34.995Z,4.43
2018-07-08T21:22:07.228Z,3.97
2018-07-08T21:24:39.510Z,4.20
2018-07-08T21:27:11.954Z,6.33
2018-07-08T21:29:45.213Z,6.23
2018-07-08T21:32:17.636Z,5.13
2018-07-08T21:34:49.808Z,4.43
2018-07-08T21:37:22.017Z,3.90
2018-07-08T21:39:54.258Z,4.93
2018-07-08T21:42:26.450Z,4.63
2018-07-08T21:44:58.778Z,5.00
2018-07-08T21:47:30.978Z,4.37
2018-07-08T21:50:03.120Z,4.70
2018-07-08T21:52:35.243Z,5.03
2018-07-08T21:55:07.492Z,4.70
2018-07-08T21:57:40.003Z,4.80
2018-07-08T22:00:12.245Z,5.07
2018-07-08T22:02:44.508Z,4.70
2018-07-08T22:05:16.957Z,5.40
2018-07-08T22:07:54.950Z,4.60
2018-07-08T22:10:29.751Z,4.63
2018-07-08T22:13:02.695Z,4.93
2018-07-08T22:15:34.912Z,4.83
2018-07-08T22:18:07.024Z,5.70
2018-07-08T22:20:39.231Z,6.23
2018-07-08T22:23:11.488Z,4.63
2018-07-08T22:25:43.815Z,5.20
2018-07-08T22:28:16.062Z,4.83
2018-07-08T22:30:48.309Z,6.40
2018-07-08T22:33:20.893Z,4.67
2018-07-08T22:35:53.043Z,4.40
2018-07-08T22:38:25.226Z,7.47
2018-07-08T22:40:57.527Z,5.10
2018-07-08T22:43:29.976Z,4.60
2018-07-08T22:46:02.218Z,6.13
2018-07-08T22:48:34.470Z,4.67
2018-07-08T22:51:06.660Z,5.00
2018-07-08T22:53:38.836Z,5.60
2018-07-08T22:56:11.052Z,5.03
2018-07-08T22:58:43.342Z,4.53
2018-07-08T23:01:26.996Z,6.50
2018-07-08T23:04:00.450Z,4.53
2018-07-08T23:06:32.912Z,4.67
2018-07-08T23:09:05.698Z,5.27
2018-07-08T23:11:38.237Z,5.30
2018-07-08T23:14:10.409Z,5.20
2018-07-08T23:16:42.645Z,5.17
2018-07-08T23:19:15.396Z,5.30
2018-07-08T23:21:47.700Z,7.50
2018-07-08T23:24:19.985Z,7.77
2018-07-08T23:26:52.480Z,6.17
2018-07-08T23:29:26.360Z,7.17
2018-07-08T23:31:58.581Z,4.90
2018-07-08T23:34:31.020Z,7.37
2018-07-08T23:37:03.277Z,5.90
2018-07-08T23:39:35.955Z,5.30
2018-07-08T23:42:08.225Z,5.37
2018-07-08T23:44:40.541Z,5.97
2018-07-08T23:47:12.689Z,7.53
2018-07-08T23:49:45.012Z,5.37
2018-07-08T23:52:17.207Z,5.10
2018-07-08T23:54:53.189Z,6.20
2018-07-08T23:57:25.805Z,11.47
2018-07-08T23:59:58.006Z,6.03
